createdAt,value
2023-02-23T00:02:05.801Z,101018.50
2023-02-23T00:04:34.540Z,101022.16
2023-02-23T00:07:02.339Z,101021.31
2023-02-23T00:09:35.928Z,101023.16
2023-02-23T00:12:08.320Z,101034.75
2023-02-23T00:14:37.817Z,101026.84
2023-02-23T00:17:14.192Z,101036.75
2023-02-23T00:19:43.913Z,101028.78
2023-02-23T00:22:12.675Z,101026.94
2023-02-23T00:24:42.312Z,101029.63
2023-02-23T00:27:10.066Z,101028.78
2023-02-23T00:29:40.293Z,101019.03
2023-02-23T00:32:07.856Z,101013.66
2023-02-23T00:34:36.712Z,101009.25
2023-02-23T00:37:04.359Z,101016.34
2023-02-23T00:39:31.703Z,101013.78
2023-02-23T00:42:03.024Z,101010.25
2023-02-23T00:44:31.788Z,101007.56
2023-02-23T00:46:59.126Z,101007.56
2023-02-23T00:49:26.876Z,101003.31
2023-02-23T00:51:54.135Z,101009.53
2023-02-23T00:54:22.187Z,100998.75
2023-02-23T00:56:50.544Z,101001.47
2023-02-23T00:59:18.788Z,100998.75
2023-02-23T01:01:46.288Z,100998.75
2023-02-23T01:04:13.783Z,100994.38
2023-02-23T01:06:42.591Z,100995.22
2023-02-23T01:09:16.934Z,100996.22
2023-02-23T01:11:46.925Z,100995.38
2023-02-23T01:14:15.184Z,100995.38
2023-02-23T01:16:42.521Z,100995.38
2023-02-23T01:19:10.580Z,100994.50
2023-02-23T01:21:42.079Z,100993.53
2023-02-23T01:24:10.308Z,100993.53
2023-02-23T01:26:40.241Z,100990.00
2023-02-23T01:29:14.003Z,100986.44
2023-02-23T01:31:44.488Z,100988.28
2023-02-23T01:34:13.996Z,100990.97
2023-02-23T01:36:43.954Z,100993.66
2023-02-23T01:39:17.196Z,100990.97
2023-02-23T01:41:45.440Z,100981.19
2023-02-23T01:44:12.724Z,100980.19
2023-02-23T01:46:45.452Z,100974.13
2023-02-23T01:49:25.607Z,100978.50
2023-02-23T01:52:23.171Z,100976.81
2023-02-23T01:54:54.819Z,100977.66
2023-02-23T01:57:27.159Z,100982.19
2023-02-23T01:59:55.622Z,100973.28
2023-02-23T02:02:33.900Z,100971.53
2023-02-23T02:05:05.228Z,100972.44
2023-02-23T02:07:35.295Z,100978.66
2023-02-23T02:10:12.878Z,100965.31
2023-02-23T02:12:46.762Z,100959.09
2023-02-23T02:15:17.525Z,100961.78
2023-02-23T02:18:00.427Z,100964.47
2023-02-23T02:20:55.471Z,100969.00
2023-02-23T02:23:42.231Z,100965.47
2023-02-23T02:26:21.479Z,100958.25
2023-02-23T02:29:21.398Z,100956.56
2023-02-23T02:32:11.260Z,100953.03
2023-02-23T02:35:07.493Z,100951.16
2023-02-23T02:37:56.737Z,100948.47
2023-02-23T02:40:32.447Z,100943.22
2023-02-23T02:43:14.705Z,100939.56
2023-02-23T02:45:51.067Z,100946.78
2023-02-23T02:48:46.467Z,100952.16
2023-02-23T02:51:19.056Z,100946.78
2023-02-23T02:54:10.586Z,100953.97
2023-02-23T02:56:41.888Z,100947.63
2023-02-23T02:59:33.712Z,100938.84
2023-02-23T03:02:20.507Z,100944.94
2023-02-23T03:05:06.271Z,100944.94
2023-02-23T03:08:30.383Z,100942.25
2023-02-23T03:11:24.905Z,100954.84
2023-02-23T03:14:32.885Z,100947.75
2023-02-23T03:17:22.635Z,100954.84
2023-02-23T03:20:12.322Z,100949.47
2023-02-23T03:23:19.053Z,100939.69
2023-02-23T03:26:18.741Z,100946.06
2023-02-23T03:29:37.147Z,100952.28
2023-02-23T03:32:43.627Z,100956.81
2023-02-23T03:35:56.878Z,100946.91
2023-02-23T03:38:55.584Z,100947.06
2023-02-23T03:41:45.413Z,100949.75
2023-02-23T03:44:41.329Z,100946.22
2023-02-23T03:47:29.778Z,100947.06
2023-02-23T03:50:17.958Z,100949.75
2023-02-23T03:53:17.966Z,100958.81
2023-02-23T03:56:11.607Z,100953.44
2023-02-23T03:59:02.071Z,100966.00
2023-02-23T04:01:51.202Z,100967.84
2023-02-23T04:04:39.230Z,100967.84
2023-02-23T04:07:26.956Z,100974.94
2023-02-23T04:10:12.924Z,100967.84
2023-02-23T04:13:16.412Z,100968.84
2023-02-23T04:16:01.159Z,100964.47
2023-02-23T04:18:34.922Z,100972.53
2023-02-23T04:21:02.842Z,100968.00
2023-02-23T04:23:30.687Z,100970.69
2023-02-23T04:25:58.540Z,100968.00
2023-02-23T04:28:29.304Z,100963.47
2023-02-23T04:30:56.682Z,100964.47
2023-02-23T04:33:25.490Z,100966.16
2023-02-23T04:35:54.051Z,100975.06
2023-02-23T04:38:22.537Z,100969.84
2023-02-23T04:40:50.169Z,100968.84
2023-02-23T04:43:17.543Z,100971.53
2023-02-23T04:45:44.937Z,100969.84
2023-02-23T04:48:12.287Z,100966.16
2023-02-23T04:50:39.745Z,100969.84
2023-02-23T04:53:07.156Z,100965.31
2023-02-23T04:55:35.587Z,100968.00
2023-02-23T04:58:03.366Z,100971.53
2023-02-23T05:00:31.577Z,100970.84
2023-02-23T05:02:58.799Z,100969.00
2023-02-23T05:05:26.370Z,100970.69
2023-02-23T05:07:55.072Z,100970.84
2023-02-23T05:10:22.665Z,100975.34
2023-02-23T05:12:49.942Z,100974.38
2023-02-23T05:15:17.393Z,100982.44
2023-02-23T05:17:44.816Z,100973.53
2023-02-23T05:20:14.353Z,100978.91
2023-02-23T05:22:41.879Z,100977.19
2023-02-23T05:25:10.325Z,100972.63
2023-02-23T05:27:38.660Z,100966.41
2023-02-23T05:30:07.958Z,100972.63
2023-02-23T05:32:35.725Z,100974.47
2023-02-23T05:35:03.274Z,100978.03
2023-02-23T05:37:30.699Z,100966.41
2023-02-23T05:39:57.958Z,100968.25
2023-02-23T05:42:25.261Z,100965.56
2023-02-23T05:44:52.525Z,100970.94
2023-02-23T05:47:19.781Z,100972.78
2023-02-23T05:49:47.225Z,100976.47
2023-02-23T05:52:14.429Z,100977.31
2023-02-23T05:54:41.701Z,100971.94
2023-02-23T05:57:09.002Z,100978.31
2023-02-23T05:59:36.217Z,100975.63
2023-02-23T06:02:06.053Z,100973.78
2023-02-23T06:04:33.411Z,100972.94
2023-02-23T06:07:00.630Z,100981.84
2023-02-23T06:09:27.951Z,100981.00
2023-02-23T06:11:55.248Z,100985.53
2023-02-23T06:14:22.516Z,100980.16
2023-02-23T06:16:49.923Z,100983.69
2023-02-23T06:19:17.214Z,100990.78
2023-02-23T06:21:45.030Z,100998.00
2023-02-23T06:24:12.404Z,100996.16
2023-02-23T06:26:39.823Z,100996.28
2023-02-23T06:29:07.036Z,100994.44
2023-02-23T06:31:37.118Z,100997.16
2023-02-23T06:34:04.785Z,100994.44
2023-02-23T06:36:32.200Z,100993.59
2023-02-23T06:39:00.114Z,101001.69
2023-02-23T06:41:27.437Z,101004.38
2023-02-23T06:43:55.582Z,101003.47
2023-02-23T06:46:23.266Z,101008.00
2023-02-23T06:48:55.421Z,101013.41
2023-02-23T06:51:23.629Z,101016.09
2023-02-23T06:53:52.570Z,101017.94
2023-02-23T06:56:20.042Z,101025.13
2023-02-23T06:58:48.094Z,101017.03
2023-02-23T07:01:15.846Z,101027.81
2023-02-23T07:03:43.206Z,101025.13
2023-02-23T07:06:10.738Z,101027.81
2023-02-23T07:08:38.845Z,101035.88
2023-02-23T07:11:11.800Z,101027.81
2023-02-23T07:13:39.578Z,101027.81
2023-02-23T07:16:07.494Z,101035.88
2023-02-23T07:18:35.272Z,101036.75
2023-02-23T07:21:02.631Z,101039.44
2023-02-23T07:23:30.076Z,101030.50
2023-02-23T07:25:58.169Z,101026.97
2023-02-23T07:28:27.392Z,101039.44
2023-02-23T07:30:58.467Z,101042.97
2023-02-23T07:33:26.132Z,101039.44
2023-02-23T07:35:53.498Z,101046.50
2023-02-23T07:38:20.793Z,101045.66
2023-02-23T07:40:50.411Z,101047.41
2023-02-23T07:43:17.796Z,101049.94
2023-02-23T07:45:46.572Z,101050.78
2023-02-23T07:48:14.423Z,101053.47
2023-02-23T07:50:42.737Z,101049.09
2023-02-23T07:53:10.394Z,101048.25
2023-02-23T07:55:40.723Z,101054.47
2023-02-23T07:58:09.063Z,101051.78
2023-02-23T08:00:38.815Z,101065.22
2023-02-23T08:03:06.818Z,101054.47
2023-02-23T08:05:34.111Z,101050.09
2023-02-23T08:08:01.512Z,101051.03
2023-02-23T08:10:28.812Z,101053.72
2023-02-23T08:12:57.981Z,101057.38
2023-02-23T08:15:25.422Z,101055.69
2023-02-23T08:17:52.789Z,101061.06
2023-02-23T08:20:20.202Z,101061.19
2023-02-23T08:22:49.950Z,101065.72
2023-02-23T08:25:18.433Z,101064.03
2023-02-23T08:27:46.332Z,101070.25
2023-02-23T08:30:15.570Z,101056.94
2023-02-23T08:32:42.884Z,101064.16
2023-02-23T08:35:11.163Z,101061.47
2023-02-23T08:37:39.069Z,101057.19
2023-02-23T08:40:06.746Z,101066.97
2023-02-23T08:42:34.391Z,101062.56
2023-02-23T08:45:01.596Z,101064.41
2023-02-23T08:47:29.971Z,101068.81
2023-02-23T08:49:57.201Z,101070.50
2023-02-23T08:52:25.386Z,101062.44
2023-02-23T08:54:52.631Z,101073.06
2023-02-23T08:57:19.977Z,101066.00
2023-02-23T08:59:47.536Z,101072.22
2023-02-23T09:02:15.067Z,101072.09
2023-02-23T09:04:42.949Z,101071.09
2023-02-23T09:07:16.464Z,101073.66
2023-02-23T09:09:43.968Z,101079.91
2023-02-23T09:12:11.215Z,101074.50
2023-02-23T09:14:38.558Z,101071.81
2023-02-23T09:17:05.832Z,101082.59
2023-02-23T09:19:33.070Z,101080.88
2023-02-23T09:22:00.355Z,101075.63
2023-02-23T09:24:27.626Z,101076.34
2023-02-23T09:26:54.896Z,101080.00
2023-02-23T09:29:23.125Z,101082.69
2023-02-23T09:31:53.153Z,101084.53
2023-02-23T09:34:20.625Z,101082.84
2023-02-23T09:36:47.895Z,101083.69
2023-02-23T09:39:15.233Z,101077.31
2023-02-23T09:41:59.329Z,101085.53
2023-02-23T09:44:34.886Z,101086.38
2023-02-23T09:47:11.653Z,101091.75
2023-02-23T09:49:42.335Z,101092.59
2023-02-23T09:52:19.597Z,101092.50
2023-02-23T09:54:47.379Z,101090.66
2023-02-23T09:57:19.562Z,101086.00
2023-02-23T09:59:46.986Z,101091.50
2023-02-23T10:02:23.459Z,101089.81
2023-02-23T10:04:57.677Z,101085.28
2023-02-23T10:07:51.432Z,101090.66
2023-02-23T10:10:34.848Z,101086.28
2023-02-23T10:13:40.052Z,101084.44
2023-02-23T10:16:12.755Z,101088.97
2023-02-23T10:19:07.734Z,101087.13
2023-02-23T10:21:44.831Z,101092.34
2023-02-23T10:24:30.156Z,101085.38
2023-02-23T10:27:09.815Z,101093.34
2023-02-23T10:29:48.772Z,101097.03
2023-02-23T10:32:26.246Z,101099.72
2023-02-23T10:34:56.777Z,101100.56
2023-02-23T10:37:25.852Z,101093.34
2023-02-23T10:39:53.665Z,101094.34
2023-02-23T10:42:30.905Z,101091.66
2023-02-23T10:45:01.093Z,101098.84
2023-02-23T10:47:34.856Z,101095.28
2023-02-23T10:50:03.416Z,101097.97
2023-02-23T10:52:41.710Z,101093.44
2023-02-23T10:55:24.996Z,101093.44
2023-02-23T10:58:09.842Z,101094.34
2023-02-23T11:00:41.138Z,101090.75
2023-02-23T11:03:19.308Z,101092.59
2023-02-23T11:05:50.618Z,101089.06
2023-02-23T11:08:19.754Z,101085.38
2023-02-23T11:11:15.918Z,101087.22
2023-02-23T11:13:49.038Z,101085.38
2023-02-23T11:16:18.399Z,101077.31
2023-02-23T11:18:58.371Z,101075.50
2023-02-23T11:21:29.453Z,101076.47
2023-02-23T11:23:59.431Z,101071.94
2023-02-23T11:26:38.840Z,101078.19
2023-02-23T11:29:14.626Z,101068.28
2023-02-23T11:31:48.667Z,101069.25
2023-02-23T11:34:43.448Z,101068.28
2023-02-23T11:37:15.027Z,101062.91
2023-02-23T11:39:55.532Z,101069.13
2023-02-23T11:42:27.374Z,101063.88
2023-02-23T11:45:20.531Z,101059.38
2023-02-23T11:47:50.749Z,101057.53
2023-02-23T11:50:33.642Z,101064.75
2023-02-23T11:53:06.838Z,101054.84
2023-02-23T11:55:37.936Z,101053.00
2023-02-23T11:58:22.451Z,101048.63
2023-02-23T12:01:02.993Z,101049.47
2023-02-23T12:03:33.293Z,101040.56
2023-02-23T12:06:02.456Z,101040.56
2023-02-23T12:08:40.341Z,101045.94
2023-02-23T12:11:14.756Z,101041.41
2023-02-23T12:13:59.442Z,101033.31
2023-02-23T12:16:33.585Z,101037.84
2023-02-23T12:19:23.272Z,101035.16
2023-02-23T12:22:23.827Z,101035.16
2023-02-23T12:25:03.487Z,101040.41
2023-02-23T12:27:46.477Z,101038.56
2023-02-23T12:30:20.777Z,101035.03
2023-02-23T12:33:15.928Z,101023.41
2023-02-23T12:35:58.389Z,101025.25
2023-02-23T12:38:33.276Z,101019.03
2023-02-23T12:41:10.509Z,101024.41
2023-02-23T12:43:59.567Z,101015.47
2023-02-23T12:46:37.757Z,101016.34
2023-02-23T12:49:20.171Z,101012.78
2023-02-23T12:51:51.668Z,101011.81
2023-02-23T12:54:19.214Z,101019.75
2023-02-23T12:57:04.821Z,101018.03
2023-02-23T12:59:56.445Z,101017.94
2023-02-23T13:02:52.292Z,101009.97
2023-02-23T13:05:31.339Z,101018.88
2023-02-23T13:08:23.373Z,101013.50
2023-02-23T13:11:18.530Z,101011.66
2023-02-23T13:14:18.429Z,101012.53
2023-02-23T13:16:54.980Z,101006.28
2023-02-23T13:19:32.129Z,101008.97
2023-02-23T13:22:25.422Z,101008.97
2023-02-23T13:24:55.978Z,101002.75
2023-02-23T13:27:37.660Z,101002.75
2023-02-23T13:30:09.427Z,101004.59
2023-02-23T13:32:38.858Z,101010.81
2023-02-23T13:35:13.313Z,101008.13
2023-02-23T13:37:45.589Z,101006.28
2023-02-23T13:40:27.947Z,101001.91
2023-02-23T13:42:58.825Z,101001.78
2023-02-23T13:46:16.200Z,101003.59
2023-02-23T13:49:08.864Z,101001.06
2023-02-23T13:51:54.163Z,101004.59
2023-02-23T13:54:32.073Z,101012.66
2023-02-23T13:57:02.967Z,101013.50
2023-02-23T13:59:37.761Z,101011.66
2023-02-23T14:02:28.878Z,101014.34
2023-02-23T14:05:03.976Z,101014.34
2023-02-23T14:07:32.867Z,101015.25
2023-02-23T14:10:07.774Z,101003.59
2023-02-23T14:12:39.905Z,101011.66
2023-02-23T14:15:25.388Z,101007.16
2023-02-23T14:17:59.876Z,101011.66
2023-02-23T14:20:39.342Z,101005.31
2023-02-23T14:23:27.963Z,101007.28
2023-02-23T14:25:57.298Z,101003.47
2023-02-23T14:28:34.353Z,101004.38
2023-02-23T14:31:13.751Z,101010.59
2023-02-23T14:33:46.995Z,101008.00
2023-02-23T14:36:28.986Z,101004.47
2023-02-23T14:38:56.248Z,101007.06
2023-02-23T14:41:46.693Z,101007.16
2023-02-23T14:44:30.913Z,101008.88
2023-02-23T14:47:07.192Z,101008.97
2023-02-23T14:49:44.799Z,101013.41
2023-02-23T14:52:25.620Z,101007.16
2023-02-23T14:55:15.811Z,101005.44
2023-02-23T14:57:44.447Z,101006.28
2023-02-23T15:00:15.081Z,101009.97
2023-02-23T15:03:02.412Z,101005.44
2023-02-23T15:05:31.548Z,101007.28
2023-02-23T15:08:01.451Z,101005.44
2023-02-23T15:10:35.494Z,101007.28
2023-02-23T15:13:30.713Z,101004.59
2023-02-23T15:16:01.290Z,101010.81
2023-02-23T15:18:37.561Z,101007.28
2023-02-23T15:21:09.511Z,101011.81
2023-02-23T15:23:40.342Z,101004.59
2023-02-23T15:26:24.009Z,101003.59
2023-02-23T15:28:52.441Z,100999.22
2023-02-23T15:31:20.166Z,100998.38
2023-02-23T15:33:50.783Z,100997.38
2023-02-23T15:36:34.786Z,100993.00
2023-02-23T15:39:07.044Z,100995.69
2023-02-23T15:41:38.306Z,100990.31
2023-02-23T15:44:05.560Z,100988.47
2023-02-23T15:46:34.329Z,100991.16
2023-02-23T15:49:03.567Z,100988.47
2023-02-23T15:51:33.116Z,100994.84
2023-02-23T15:54:07.834Z,100993.84
2023-02-23T15:56:35.601Z,100982.22
2023-02-23T15:59:11.213Z,100997.25
2023-02-23T16:01:44.042Z,100990.03
2023-02-23T16:04:14.193Z,100991.03
2023-02-23T16:06:53.637Z,100989.06
2023-02-23T16:09:21.133Z,100988.34
2023-02-23T16:11:52.653Z,100995.53
2023-02-23T16:14:21.748Z,100988.47
2023-02-23T16:17:01.400Z,100988.47
2023-02-23T16:19:41.630Z,100989.44
2023-02-23T16:22:20.978Z,100991.16
2023-02-23T16:25:02.263Z,100993.84
2023-02-23T16:27:33.420Z,100987.47
2023-02-23T16:30:16.081Z,100990.16
2023-02-23T16:32:45.152Z,100984.78
2023-02-23T16:35:20.563Z,100984.78
2023-02-23T16:38:14.543Z,100986.50
2023-02-23T16:40:42.601Z,100991.88
2023-02-23T16:43:14.008Z,100992.72
2023-02-23T16:45:42.841Z,100989.06
2023-02-23T16:48:14.359Z,100989.06
2023-02-23T16:50:41.868Z,100989.91
2023-02-23T16:53:13.983Z,100986.38
2023-02-23T16:55:49.055Z,100979.16
2023-02-23T16:58:19.724Z,100984.53
2023-02-23T17:00:47.964Z,100985.38
2023-02-23T17:03:24.327Z,100985.38
2023-02-23T17:05:52.113Z,100980.84
2023-02-23T17:08:19.858Z,100982.69
2023-02-23T17:10:51.641Z,100987.09
2023-02-23T17:13:22.098Z,100983.56
2023-02-23T17:15:53.812Z,100988.94
2023-02-23T17:20:57.684Z,100995.16
2023-02-23T17:23:27.104Z,100996.16
2023-02-23T17:25:56.010Z,100998.84
2023-02-23T17:28:23.528Z,100998.00
2023-02-23T17:30:50.853Z,100998.84
2023-02-23T17:33:18.364Z,101006.06
2023-02-23T17:35:46.167Z,101006.91
2023-02-23T17:38:14.992Z,101000.69
2023-02-23T17:40:44.093Z,101020.34
2023-02-23T17:43:14.120Z,101015.13
2023-02-23T17:45:41.403Z,101014.25
2023-02-23T17:48:08.769Z,101015.25
2023-02-23T17:50:36.102Z,101013.41
2023-02-23T17:53:03.425Z,101013.28
2023-02-23T17:55:30.663Z,101008.75
2023-02-23T17:57:58.145Z,101003.22
2023-02-23T18:00:25.832Z,101004.06
2023-02-23T18:02:53.189Z,101009.44
2023-02-23T18:05:20.844Z,101014.72
2023-02-23T18:07:48.891Z,101020.78
2023-02-23T18:10:16.970Z,101026.06
2023-02-23T18:12:44.752Z,101023.38
2023-02-23T18:15:12.245Z,101024.22
2023-02-23T18:17:39.569Z,101028.75
2023-02-23T18:20:07.330Z,101026.16
2023-02-23T18:22:34.704Z,101027.00
2023-02-23T18:25:02.038Z,101018.25
2023-02-23T18:27:29.356Z,101027.31
2023-02-23T18:29:56.730Z,101024.63
2023-02-23T18:32:24.187Z,101020.22
2023-02-23T18:34:51.525Z,101028.28
2023-02-23T18:37:27.551Z,101033.66
2023-02-23T18:39:59.383Z,101034.66
2023-02-23T18:42:26.695Z,101035.66
2023-02-23T18:44:54.069Z,101036.50
2023-02-23T18:47:21.362Z,101045.41
2023-02-23T18:49:48.695Z,101048.25
2023-02-23T18:52:16.013Z,101046.41
2023-02-23T18:54:43.265Z,101054.47
2023-02-23T18:57:10.531Z,101048.25
2023-02-23T18:59:37.890Z,101038.34
2023-02-23T19:02:05.270Z,101047.41
2023-02-23T19:04:32.585Z,101043.72
2023-02-23T19:06:59.943Z,101047.41
2023-02-23T19:09:27.147Z,101048.34
2023-02-23T19:11:54.652Z,101049.19
2023-02-23T19:14:32.841Z,101053.72
2023-02-23T19:17:04.083Z,101049.19
2023-02-23T19:19:32.631Z,101060.84
2023-02-23T19:21:59.872Z,101061.81
2023-02-23T19:24:27.229Z,101054.59
2023-02-23T19:26:54.470Z,101053.72
2023-02-23T19:29:21.650Z,101050.19
2023-02-23T19:31:50.085Z,101044.81
2023-02-23T19:34:17.602Z,101041.25
2023-02-23T19:36:47.058Z,101042.13
2023-02-23T19:39:15.794Z,101039.44
2023-02-23T19:41:45.650Z,101041.25
2023-02-23T19:44:12.968Z,101042.13
2023-02-23T19:46:40.339Z,101028.69
2023-02-23T19:49:07.732Z,101038.56
2023-02-23T19:51:35.558Z,101037.59
2023-02-23T19:54:03.639Z,101043.94
2023-02-23T19:56:31.001Z,101043.94
2023-02-23T19:59:00.823Z,101038.56
2023-02-23T20:01:29.898Z,101041.25
2023-02-23T20:04:02.413Z,101040.41
2023-02-23T20:06:32.084Z,101045.78
2023-02-23T20:09:00.181Z,101043.09
2023-02-23T20:11:28.324Z,101042.25
2023-02-23T20:13:57.372Z,101049.31
2023-02-23T20:16:29.732Z,101052.16
2023-02-23T20:18:58.321Z,101060.06
2023-02-23T20:21:27.256Z,101053.00
2023-02-23T20:23:55.864Z,101059.22
2023-02-23T20:26:26.626Z,101047.63
2023-02-23T20:28:55.491Z,101049.47
2023-02-23T20:31:29.156Z,101042.25
2023-02-23T20:33:58.626Z,101049.47
2023-02-23T20:36:25.998Z,101048.63
2023-02-23T20:38:53.221Z,101054.00
2023-02-23T20:41:20.985Z,101055.81
2023-02-23T20:43:48.432Z,101056.69
2023-02-23T20:46:16.990Z,101069.13
2023-02-23T20:48:44.343Z,101066.44
2023-02-23T20:51:13.094Z,101064.75
2023-02-23T20:53:41.934Z,101054.00
2023-02-23T20:56:10.121Z,101052.25
2023-02-23T20:58:37.586Z,101058.50
2023-02-23T21:01:06.803Z,101056.69
2023-02-23T21:03:35.637Z,101055.81
2023-02-23T21:06:03.025Z,101053.13
2023-02-23T21:08:30.847Z,101049.56
2023-02-23T21:11:04.980Z,101047.72
2023-02-23T21:13:32.731Z,101047.63
2023-02-23T21:16:01.493Z,101045.66
2023-02-23T21:18:29.871Z,101048.25
2023-02-23T21:20:58.972Z,101057.16
2023-02-23T21:23:26.394Z,101051.78
2023-02-23T21:25:54.098Z,101057.84
2023-02-23T21:28:21.486Z,101055.31
2023-02-23T21:30:48.750Z,101055.31
2023-02-23T21:33:16.964Z,101060.69
2023-02-23T21:35:44.199Z,101053.47
2023-02-23T21:38:11.729Z,101052.63
2023-02-23T21:40:42.346Z,101056.16
2023-02-23T21:43:09.845Z,101051.63
2023-02-23T21:45:39.291Z,101054.47
2023-02-23T21:48:06.564Z,101066.91
2023-02-23T21:50:33.827Z,101061.53
2023-02-23T21:53:01.115Z,101061.53
2023-02-23T21:55:28.355Z,101060.69
2023-02-23T21:57:56.934Z,101064.22
2023-02-23T22:00:24.612Z,101057.84
2023-02-23T22:02:52.081Z,101051.63
2023-02-23T22:05:20.455Z,101051.63
2023-02-23T22:07:49.781Z,101041.88
2023-02-23T22:10:19.036Z,101051.63
2023-02-23T22:12:46.426Z,101049.78
2023-02-23T22:15:15.887Z,101046.25
2023-02-23T22:17:44.155Z,101048.09
2023-02-23T22:20:12.631Z,101047.09
2023-02-23T22:22:39.928Z,101044.56
2023-02-23T22:25:08.159Z,101033.66
2023-02-23T22:27:35.384Z,101036.22
2023-02-23T22:30:05.054Z,101036.94
2023-02-23T22:32:33.179Z,101036.94
2023-02-23T22:35:01.412Z,101043.03
2023-02-23T22:37:30.001Z,101038.50
2023-02-23T22:39:59.927Z,101036.81
2023-02-23T22:42:30.251Z,101036.81
2023-02-23T22:44:57.455Z,101037.66
2023-02-23T22:47:24.875Z,101034.13
2023-02-23T22:49:52.115Z,101036.81
2023-02-23T22:52:20.427Z,101035.81
2023-02-23T22:54:48.064Z,101038.63
2023-02-23T22:57:15.314Z,101040.34
2023-02-23T22:59:54.534Z,101035.09
2023-02-23T23:02:22.870Z,101029.72
2023-02-23T23:04:50.281Z,101035.94
2023-02-23T23:07:20.105Z,101031.44
2023-02-23T23:09:47.401Z,101034.13
2023-02-23T23:12:14.756Z,101026.06
2023-02-23T23:14:42.018Z,101029.72
2023-02-23T23:17:10.012Z,101034.13
2023-02-23T23:19:41.719Z,101024.31
2023-02-23T23:22:14.516Z,101027.75
2023-02-23T23:24:46.207Z,101025.06
2023-02-23T23:27:19.776Z,101026.75
2023-02-23T23:29:48.081Z,101023.22
2023-02-23T23:32:17.709Z,101028.75
2023-02-23T23:34:48.990Z,101027.00
2023-02-23T23:37:18.361Z,101028.84
2023-02-23T23:39:45.900Z,101025.31
2023-02-23T23:42:13.787Z,101029.00
2023-02-23T23:44:41.146Z,101028.00
2023-02-23T23:47:08.451Z,101034.38
2023-02-23T23:49:38.053Z,101031.81
2023-02-23T23:52:06.139Z,101027.31
2023-02-23T23:54:39.256Z,101025.59
2023-02-23T23:57:07.357Z,101026.59
2023-02-23T23:59:35.412Z,101027.44
